Terminal Aerodrome Forecast
Issued by NWS

Home | Current Version | Previous Version | Text Only | Print | Product List | Glossary On
Versions: 1 2 3 4 5 6 7 8 9 10 11 12 13 14 15 16 17 18 19 20 21 22 23
000
FTUS41 KCTP 311518 AAA
TAFLNS
TAF AMD
KLNS 311518Z 3115/0112 VRB03KT P6SM SKC
     FM311800 19005KT P6SM SCT050 BKN150
     FM010400 VRB03KT 5SM -SHRA OVC100
     FM011000 34005KT P6SM OVC050=

USA.gov is the U.S. government's official web portal to all federal, state and local government web resources and services.